Allenport, Pennsylvania
Current Conditions -  °F | °C
As of 1:53 AM on Saturday 29 Nov 2014 (Local Time) from KAGC Reporting Station
Overcast Overcast  
Wind Chill: 20°   Ceiling: 6500
Heat Index: 27°   Visibility: 10mi
Dew Point: 17°   Wind: 6mph
Humidity: 66%   Direction: 170°S
Pressure: 30.16"   Gusts: NA
Location:  40.1°N, 79.85°W
Report Text: KAGC 290653Z 17005KT 10SM OVC065 M03/M08 A3016 RMK AO2 SLP234 T10281083
Loading
Personal Weather Stations






























Interactive Weather Map New forecast layout! Learn more

10-Day Weather Forecast

Advertisements
Track Severe Weather on mobile